Terminal Aerodrome Forecast
Issued by NWS Springfield, MO

Home | Current Version | Previous Version | Text Only | Print | Product List | Glossary On
Versions: 1 2 3 4 5 6 7 8 9 10 11 12 13 14 15 16 17 18 19 20 21 22 23
000
FTUS43 KSGF 242300
TAFSGF
TAF
KSGF 242337Z 2500/2524 20012KT P6SM SCT050 SCT250
     FM250300 VRB05KT P6SM SCT250
     FM251800 15010KT P6SM BKN050 OVC100
      TEMPO 2520/2524 6SM -TSRA OVC050CB=

USA.gov is the U.S. government's official web portal to all federal, state and local government web resources and services.